Aeroporto :
LOGIN :

Iscrizione | Disclaimer

   EN    FR    IT 

 










Sommario :    VFR   VFR Marginale   IFR   IFR Intensivo   IFR Molto Intensivo
Visibilità : 
Base nubi : 
>= 8 km
>= 3000ft
5 / 8 km
1000 / 3000 ft
1500m / 5 km
500 / 1000 ft
800 / 1500m
200 / 500 ft
< 800m
< 200 ft
Simboli :   Temporali  Nebbia  Neve Forte  Precipitazioni Forti  Vento > 20 kt
SIGMETs :   Varie  Temporali  Ghiacco  Turbolenza  Onda orograficha  Ceneri Vulcaniche






- Altitudine del aeroporto : 1860 ft
- Codice IATA : GRX


LEGR - Granada

ULTIMO METAR :
  • 310100Z AUTO 00000KT CAVOK 18/10 Q1014

METARs OBSOLETI :
  • 310030Z AUTO VRB01KT CAVOK 17/09 Q1014
  • 310000Z AUTO 00000KT CAVOK 18/08 Q1014
  • 302330Z AUTO 00000KT CAVOK 20/08 Q1014
  • 302300Z AUTO VRB01KT CAVOK 19/08 Q1014
  • 302230Z AUTO 10003KT CAVOK 21/08 Q1014

TAF TAF LEGR
Valido dal 30 a 21 ore il 31 a 21 ore UTC


302000Z 3021/3121 14007KT CAVOK TX29/3114Z TN15/3105Z
PROB30
TEMPO 3112/3117 29010KT TS SHRA FEW060CB



MetMap, La meteo Aeronautica in un colpo d'occhio ! - Copyright ORBIFLY Dicembre 2007 - Disclaimer

ORBIFLY MET'MAP TEAM :

Programmazione e sviluppo : Alexandra Zaïnal
Concezione : Baudouin d'Aumeries
Aiuto per la programmazione : Marc-Olivier Méhu
Supporto tecnico e logistico : Manuel Goepfert
Aiuto per la traduzione : Arnaldo La Scala

Contatto : metmap@orbifly.com




FONTI E CREDITI :

   NOAA